createdAt,value
2023-02-11T00:00:34.938Z,1.70
2023-02-11T00:03:02.480Z,1.40
2023-02-11T00:05:29.848Z,1.57
2023-02-11T00:07:57.122Z,1.63
2023-02-11T00:10:24.370Z,1.53
2023-02-11T00:12:51.711Z,1.40
2023-02-11T00:15:19.225Z,1.60
2023-02-11T00:17:46.523Z,1.40
2023-02-11T00:20:14.092Z,1.60
2023-02-11T00:22:41.337Z,1.77
2023-02-11T00:25:08.831Z,1.73
2023-02-11T00:27:37.677Z,1.57
2023-02-11T00:30:05.675Z,1.43
2023-02-11T00:32:33.429Z,1.50
2023-02-11T00:35:00.895Z,1.43
2023-02-11T00:37:28.247Z,2.13
2023-02-11T00:39:55.684Z,1.43
2023-02-11T00:42:23.062Z,1.30
2023-02-11T00:44:50.488Z,1.97
2023-02-11T00:47:17.948Z,1.80
2023-02-11T00:49:45.317Z,2.30
2023-02-11T00:52:12.963Z,2.37
2023-02-11T00:54:40.548Z,2.47
2023-02-11T00:57:08.933Z,2.30
2023-02-11T00:59:36.419Z,2.57
2023-02-11T01:02:03.794Z,2.03
2023-02-11T01:04:31.491Z,2.67
2023-02-11T01:06:58.851Z,2.30
2023-02-11T01:09:28.732Z,2.33
2023-02-11T01:11:56.030Z,2.50
2023-02-11T01:14:23.567Z,2.17
2023-02-11T01:16:51.852Z,2.23
2023-02-11T01:19:21.777Z,2.00
2023-02-11T01:21:49.112Z,2.10
2023-02-11T01:24:17.648Z,2.47
2023-02-11T01:26:45.527Z,2.23
2023-02-11T01:29:12.951Z,2.30
2023-02-11T01:31:40.391Z,1.80
2023-02-11T01:34:07.776Z,2.13
2023-02-11T01:36:37.471Z,1.83
2023-02-11T01:39:05.252Z,1.93
2023-02-11T01:41:32.576Z,2.00
2023-02-11T01:43:59.917Z,2.30
2023-02-11T01:46:31.312Z,2.33
2023-02-11T01:49:07.146Z,2.40
2023-02-11T01:51:54.815Z,2.20
2023-02-11T01:54:43.824Z,1.90
2023-02-11T01:57:25.293Z,1.93
2023-02-11T01:59:55.765Z,2.00
2023-02-11T02:02:25.557Z,2.27
2023-02-11T02:05:11.706Z,2.20
2023-02-11T02:08:02.087Z,1.57
2023-02-11T02:10:34.901Z,2.20
2023-02-11T02:13:02.327Z,2.13
2023-02-11T02:15:29.722Z,2.33
2023-02-11T02:18:15.915Z,2.90
2023-02-11T02:20:57.157Z,2.17
2023-02-11T02:23:27.392Z,2.60
2023-02-11T02:26:11.644Z,2.67
2023-02-11T02:28:57.694Z,2.40
2023-02-11T02:31:25.029Z,2.40
2023-02-11T02:34:03.272Z,2.07
2023-02-11T02:36:49.350Z,2.03
2023-02-11T02:39:21.269Z,2.30
2023-02-11T02:41:49.695Z,2.60
2023-02-11T02:44:17.185Z,2.40
2023-02-11T02:46:44.863Z,2.30
2023-02-11T02:49:16.138Z,2.50
2023-02-11T02:52:02.313Z,2.83
2023-02-11T02:54:48.611Z,2.33
2023-02-11T02:57:34.739Z,2.60
2023-02-11T03:00:10.038Z,2.77
2023-02-11T03:02:42.402Z,3.10
2023-02-11T03:05:19.503Z,3.20
2023-02-11T03:07:52.091Z,2.77
2023-02-11T03:10:25.860Z,2.97
2023-02-11T03:12:56.311Z,2.47
2023-02-11T03:15:24.863Z,3.10
2023-02-11T03:17:53.846Z,2.43
2023-02-11T03:20:22.510Z,3.70
2023-02-11T03:22:53.571Z,2.60
2023-02-11T03:25:26.957Z,2.87
2023-02-11T03:27:58.337Z,2.80
2023-02-11T03:30:27.423Z,3.10
2023-02-11T03:33:01.138Z,3.13
2023-02-11T03:35:33.559Z,3.00
2023-02-11T03:38:03.176Z,2.60
2023-02-11T03:40:33.110Z,3.03
2023-02-11T03:43:01.800Z,4.57
2023-02-11T03:45:29.432Z,3.80
2023-02-11T03:48:03.225Z,2.80
2023-02-11T03:50:32.309Z,3.63
2023-02-11T03:53:01.058Z,4.40
2023-02-11T03:55:29.060Z,3.00
2023-02-11T03:57:56.966Z,3.90
2023-02-11T04:00:31.239Z,4.37
2023-02-11T04:02:59.625Z,3.13
2023-02-11T04:05:26.919Z,3.07
2023-02-11T04:07:54.193Z,3.67
2023-02-11T04:10:21.805Z,4.37
2023-02-11T04:12:49.179Z,3.43
2023-02-11T04:15:16.732Z,4.30
2023-02-11T04:17:44.000Z,3.67
2023-02-11T04:20:11.845Z,4.67
2023-02-11T04:22:39.528Z,4.73
2023-02-11T04:25:09.648Z,4.67
2023-02-11T04:27:37.509Z,4.87
2023-02-11T04:30:05.728Z,3.77
2023-02-11T04:32:33.109Z,4.13
2023-02-11T04:35:00.457Z,4.83
2023-02-11T04:37:27.740Z,4.37
2023-02-11T04:39:55.016Z,3.90
2023-02-11T04:42:22.513Z,4.60
2023-02-11T04:44:49.797Z,3.50
2023-02-11T04:47:20.112Z,3.70
2023-02-11T04:49:47.484Z,3.30
2023-02-11T04:52:14.962Z,5.03
2023-02-11T04:54:42.271Z,4.40
2023-02-11T04:57:09.659Z,4.10
2023-02-11T04:59:37.059Z,4.00
2023-02-11T05:02:04.424Z,4.27
2023-02-11T05:04:31.844Z,4.10
2023-02-11T05:06:59.239Z,4.00
2023-02-11T05:09:26.571Z,4.57
2023-02-11T05:11:53.868Z,4.03
2023-02-11T05:14:23.963Z,4.30
2023-02-11T05:16:51.409Z,5.13
2023-02-11T05:19:18.686Z,4.53
2023-02-11T05:22:01.370Z,4.43
2023-02-11T05:24:30.493Z,4.20
2023-02-11T05:26:57.804Z,4.67
2023-02-11T05:29:25.126Z,5.07
2023-02-11T05:31:52.908Z,4.17
2023-02-11T05:34:20.295Z,4.67
2023-02-11T05:36:47.615Z,4.83
2023-02-11T05:39:14.917Z,4.50
2023-02-11T05:41:42.286Z,4.63
2023-02-11T05:44:10.092Z,5.53
2023-02-11T05:46:37.593Z,4.70
2023-02-11T05:49:05.000Z,3.90
2023-02-11T05:51:32.315Z,5.47
2023-02-11T05:53:59.613Z,4.40
2023-02-11T05:56:26.936Z,5.27
2023-02-11T05:58:54.299Z,4.17
2023-02-11T06:01:21.625Z,4.50
2023-02-11T06:03:50.289Z,5.37
2023-02-11T06:06:18.094Z,5.20
2023-02-11T06:08:45.492Z,4.17
2023-02-11T06:11:14.894Z,4.10
2023-02-11T06:13:42.249Z,4.57
2023-02-11T06:16:10.487Z,4.73
2023-02-11T06:18:37.896Z,4.23
2023-02-11T06:21:09.385Z,4.57
2023-02-11T06:23:36.928Z,4.73
2023-02-11T06:26:08.299Z,4.57
2023-02-11T06:28:36.101Z,3.97
2023-02-11T06:31:07.268Z,5.50
2023-02-11T06:33:34.940Z,4.37
2023-02-11T06:36:02.764Z,4.13
2023-02-11T06:38:30.092Z,5.13
2023-02-11T06:40:57.523Z,4.73
2023-02-11T06:43:24.789Z,4.30
2023-02-11T06:45:55.431Z,4.90
2023-02-11T06:48:23.911Z,4.43
2023-02-11T06:50:51.401Z,4.90
2023-02-11T06:53:18.999Z,5.57
2023-02-11T06:55:46.328Z,5.10
2023-02-11T06:58:13.693Z,5.40
2023-02-11T07:00:41.221Z,4.57
2023-02-11T07:03:08.690Z,5.07
2023-02-11T07:05:38.593Z,4.70
2023-02-11T07:08:05.968Z,4.43
2023-02-11T07:10:37.062Z,5.90
2023-02-11T07:13:04.668Z,4.93
2023-02-11T07:15:32.196Z,5.83
2023-02-11T07:17:59.813Z,4.77
2023-02-11T07:20:28.395Z,4.63
2023-02-11T07:22:55.959Z,4.63
2023-02-11T07:25:23.321Z,4.13
2023-02-11T07:27:50.976Z,5.00
2023-02-11T07:30:18.515Z,4.90
2023-02-11T07:32:46.128Z,5.40
2023-02-11T07:35:14.755Z,4.93
2023-02-11T07:37:42.200Z,4.53
2023-02-11T07:40:10.021Z,4.87
2023-02-11T07:42:37.440Z,4.87
2023-02-11T07:45:04.881Z,5.00
2023-02-11T07:47:32.491Z,4.67
2023-02-11T07:49:59.830Z,4.47
2023-02-11T07:52:29.948Z,4.27
2023-02-11T07:54:57.632Z,4.33
2023-02-11T07:57:24.945Z,4.80
2023-02-11T07:59:52.337Z,4.40
2023-02-11T08:02:19.704Z,4.90
2023-02-11T08:04:47.823Z,4.70
2023-02-11T08:07:16.254Z,4.10
2023-02-11T08:09:43.682Z,3.77
2023-02-11T08:12:15.745Z,4.47
2023-02-11T08:14:43.457Z,4.47
2023-02-11T08:17:10.839Z,4.03
2023-02-11T08:19:47.497Z,3.77
2023-02-11T08:22:14.914Z,4.67
2023-02-11T08:24:42.495Z,4.07
2023-02-11T08:27:09.754Z,4.43
2023-02-11T08:29:37.203Z,4.50
2023-02-11T08:32:04.646Z,4.60
2023-02-11T08:34:32.215Z,4.43
2023-02-11T08:36:59.734Z,4.13
2023-02-11T08:39:27.156Z,4.83
2023-02-11T08:41:56.829Z,3.83
2023-02-11T08:44:24.456Z,4.23
2023-02-11T08:46:54.079Z,4.23
2023-02-11T08:49:22.268Z,5.00
2023-02-11T08:51:49.840Z,3.70
2023-02-11T08:54:17.665Z,4.47
2023-02-11T08:56:51.678Z,3.70
2023-02-11T08:59:21.651Z,5.00
2023-02-11T09:01:56.688Z,4.20
2023-02-11T09:04:24.135Z,3.57
2023-02-11T09:06:51.553Z,4.43
2023-02-11T09:09:19.187Z,3.87
2023-02-11T09:11:49.372Z,4.17
2023-02-11T09:14:22.376Z,4.27
2023-02-11T09:16:56.175Z,3.70
2023-02-11T09:19:23.990Z,4.27
2023-02-11T09:21:54.546Z,4.33
2023-02-11T09:24:28.164Z,3.87
2023-02-11T09:26:55.455Z,3.63
2023-02-11T09:29:25.310Z,3.43
2023-02-11T09:31:53.059Z,3.50
2023-02-11T09:34:22.175Z,4.07
2023-02-11T09:36:51.882Z,3.93
2023-02-11T09:39:21.839Z,3.80
2023-02-11T09:41:58.287Z,3.97
2023-02-11T09:44:30.524Z,3.73
2023-02-11T09:47:01.972Z,3.47
2023-02-11T09:49:37.849Z,4.10
2023-02-11T09:52:25.417Z,3.23
2023-02-11T09:54:55.936Z,3.70
2023-02-11T09:57:28.799Z,3.90
2023-02-11T09:59:58.115Z,5.13
2023-02-11T10:02:28.631Z,3.80
2023-02-11T10:05:15.105Z,3.57
2023-02-11T10:07:45.422Z,4.23
2023-02-11T10:10:33.063Z,3.37
2023-02-11T10:13:26.563Z,3.43
2023-02-11T10:16:06.734Z,3.30
2023-02-11T10:18:45.522Z,3.93
2023-02-11T10:21:31.875Z,3.47
2023-02-11T10:24:02.736Z,4.17
2023-02-11T10:26:31.232Z,3.77
2023-02-11T10:29:01.377Z,3.73
2023-02-11T10:31:34.395Z,3.17
2023-02-11T10:34:01.886Z,3.30
2023-02-11T10:36:34.793Z,3.60
2023-02-11T10:39:17.575Z,3.73
2023-02-11T10:41:46.783Z,3.40
2023-02-11T10:44:52.799Z,3.47
2023-02-11T10:47:27.059Z,3.80
2023-02-11T10:50:03.916Z,3.53
2023-02-11T10:52:31.769Z,3.77
2023-02-11T10:55:20.728Z,4.37
2023-02-11T10:57:54.514Z,2.90
2023-02-11T11:00:27.585Z,3.53
2023-02-11T11:03:02.372Z,3.57
2023-02-11T11:05:35.018Z,3.70
2023-02-11T11:08:07.167Z,3.73
2023-02-11T11:10:45.828Z,3.30
2023-02-11T11:13:36.902Z,4.00
2023-02-11T11:16:11.764Z,3.73
2023-02-11T11:18:45.692Z,3.60
2023-02-11T11:21:13.160Z,3.30
2023-02-11T11:23:41.046Z,3.83
2023-02-11T11:26:13.156Z,3.73
2023-02-11T11:28:58.632Z,3.80
2023-02-11T11:31:41.509Z,3.90
2023-02-11T11:34:38.676Z,3.40
2023-02-11T11:37:25.668Z,3.83
2023-02-11T11:40:25.478Z,3.17
2023-02-11T11:43:07.236Z,3.50
2023-02-11T11:45:34.617Z,3.47
2023-02-11T11:48:05.867Z,3.70
2023-02-11T11:50:59.655Z,4.10
2023-02-11T11:53:34.314Z,4.23
2023-02-11T11:56:04.601Z,3.30
2023-02-11T11:58:32.766Z,3.57
2023-02-11T12:01:04.250Z,3.53
2023-02-11T12:03:34.584Z,3.57
2023-02-11T12:06:13.206Z,3.73
2023-02-11T12:08:56.258Z,3.83
2023-02-11T12:11:44.010Z,3.20
2023-02-11T12:14:23.583Z,3.20
2023-02-11T12:17:01.449Z,3.27
2023-02-11T12:19:32.051Z,3.33
2023-02-11T12:22:05.375Z,3.50
2023-02-11T12:24:54.867Z,3.63
2023-02-11T12:27:22.323Z,3.33
2023-02-11T12:29:57.440Z,3.30
2023-02-11T12:32:48.252Z,3.50
2023-02-11T12:35:15.561Z,3.30
2023-02-11T12:37:45.837Z,2.87
2023-02-11T12:40:24.896Z,3.73
2023-02-11T12:43:10.812Z,3.13
2023-02-11T12:45:50.638Z,3.40
2023-02-11T12:48:18.162Z,2.90
2023-02-11T12:50:56.990Z,3.10
2023-02-11T12:53:24.674Z,3.27
2023-02-11T12:55:57.916Z,3.93
2023-02-11T12:58:43.125Z,2.67
2023-02-11T13:01:27.899Z,3.13
2023-02-11T13:04:00.097Z,3.23
2023-02-11T13:06:35.543Z,3.80
2023-02-11T13:09:08.485Z,3.70
2023-02-11T13:11:52.002Z,3.40
2023-02-11T13:14:32.821Z,3.00
2023-02-11T13:17:00.603Z,2.73
2023-02-11T13:19:48.282Z,3.30
2023-02-11T13:22:27.260Z,2.73
2023-02-11T13:25:15.236Z,3.33
2023-02-11T13:27:58.576Z,2.80
2023-02-11T13:30:30.360Z,3.33
2023-02-11T13:32:57.647Z,3.10
2023-02-11T13:35:29.769Z,2.90
2023-02-11T13:37:58.560Z,3.07
2023-02-11T13:40:29.516Z,2.87
2023-02-11T13:43:00.489Z,3.43
2023-02-11T13:45:31.175Z,3.40
2023-02-11T13:48:07.189Z,2.67
2023-02-11T13:50:40.109Z,3.03
2023-02-11T13:53:08.851Z,3.03
2023-02-11T13:55:38.226Z,3.10
2023-02-11T13:58:10.005Z,2.90
2023-02-11T14:00:37.408Z,2.70
2023-02-11T14:03:44.359Z,2.97
2023-02-11T14:06:41.024Z,2.47
2023-02-11T14:09:08.863Z,3.27
2023-02-11T14:11:42.366Z,3.07
2023-02-11T14:14:17.346Z,3.07
2023-02-11T14:17:03.385Z,2.90
2023-02-11T14:19:35.090Z,3.13
2023-02-11T14:22:19.075Z,3.07
2023-02-11T14:24:54.804Z,2.60
2023-02-11T14:27:26.459Z,3.00
2023-02-11T14:30:03.257Z,2.53
2023-02-11T14:32:43.244Z,3.10
2023-02-11T14:35:35.653Z,3.10
2023-02-11T14:38:06.096Z,2.60
2023-02-11T14:40:55.123Z,2.70
2023-02-11T14:43:29.561Z,2.60
2023-02-11T14:46:00.759Z,3.63
2023-02-11T14:48:30.310Z,3.40
2023-02-11T14:51:03.713Z,2.80
2023-02-11T14:53:32.854Z,2.70
2023-02-11T14:56:00.468Z,2.67
2023-02-11T14:58:28.012Z,2.03
2023-02-11T15:01:06.698Z,2.80
2023-02-11T15:03:36.542Z,3.03
2023-02-11T15:06:08.665Z,2.93
2023-02-11T15:08:40.276Z,2.90
2023-02-11T15:11:12.469Z,2.90
2023-02-11T15:13:44.575Z,2.53
2023-02-11T15:16:15.516Z,3.00
2023-02-11T15:18:48.369Z,2.60
2023-02-11T15:21:21.338Z,2.90
2023-02-11T15:23:59.415Z,2.70
2023-02-11T15:26:27.342Z,2.77
2023-02-11T15:28:56.230Z,3.17
2023-02-11T15:31:25.791Z,3.03
2023-02-11T15:33:56.670Z,2.60
2023-02-11T15:36:28.872Z,3.03
2023-02-11T15:39:15.436Z,2.97
2023-02-11T15:41:44.616Z,2.50
2023-02-11T15:44:28.867Z,3.37
2023-02-11T15:46:56.526Z,3.97
2023-02-11T15:49:36.493Z,2.50
2023-02-11T15:52:04.797Z,3.27
2023-02-11T15:54:32.740Z,2.63
2023-02-11T15:57:02.319Z,3.03
2023-02-11T15:59:33.704Z,2.53
2023-02-11T16:02:21.830Z,3.00
2023-02-11T16:04:57.701Z,3.27
2023-02-11T16:07:44.118Z,3.10
2023-02-11T16:10:31.688Z,2.57
2023-02-11T16:13:11.368Z,2.87
2023-02-11T16:15:44.562Z,2.60
2023-02-11T16:18:34.014Z,2.87
2023-02-11T16:21:05.104Z,2.83
2023-02-11T16:23:38.147Z,2.87
2023-02-11T16:26:16.070Z,3.17
2023-02-11T16:28:45.440Z,3.13
2023-02-11T16:31:14.147Z,2.60
2023-02-11T16:33:41.571Z,3.00
2023-02-11T16:36:17.369Z,2.93
2023-02-11T16:38:48.073Z,2.87
2023-02-11T16:41:36.919Z,2.20
2023-02-11T16:44:04.458Z,2.97
2023-02-11T16:46:44.644Z,2.60
2023-02-11T16:49:28.849Z,2.90
2023-02-11T16:52:02.619Z,2.37
2023-02-11T16:54:30.679Z,2.87
2023-02-11T16:57:00.684Z,2.93
2023-02-11T16:59:33.584Z,2.50
2023-02-11T17:02:00.941Z,2.80
2023-02-11T17:04:30.468Z,2.30
2023-02-11T17:06:58.797Z,2.33
2023-02-11T17:09:30.328Z,2.13
2023-02-11T17:12:00.830Z,2.30
2023-02-11T17:14:29.778Z,2.83
2023-02-11T17:16:57.634Z,2.73
2023-02-11T17:19:25.307Z,3.10
2023-02-11T17:21:56.116Z,3.10
2023-02-11T17:24:24.497Z,2.40
2023-02-11T17:26:57.421Z,2.50
2023-02-11T17:29:27.616Z,2.50
2023-02-11T17:31:55.810Z,2.40
2023-02-11T17:34:24.065Z,2.50
2023-02-11T17:36:51.929Z,3.00
2023-02-11T17:39:21.169Z,2.50
2023-02-11T17:41:48.772Z,3.00
2023-02-11T17:44:16.849Z,2.60
2023-02-11T17:46:44.933Z,2.50
2023-02-11T17:49:12.802Z,3.03
2023-02-11T17:51:40.893Z,2.27
2023-02-11T17:54:12.724Z,2.90
2023-02-11T17:56:40.609Z,2.90
2023-02-11T17:59:08.801Z,2.73
2023-02-11T18:01:39.650Z,2.70
2023-02-11T18:04:08.264Z,3.10
2023-02-11T18:06:35.970Z,2.37
2023-02-11T18:09:04.480Z,2.43
2023-02-11T18:11:32.995Z,2.80
2023-02-11T18:14:01.129Z,2.20
2023-02-11T18:16:30.244Z,3.50
2023-02-11T18:18:59.247Z,2.63
2023-02-11T18:21:26.692Z,2.50
2023-02-11T18:23:55.086Z,2.97
2023-02-11T18:26:22.536Z,2.53
2023-02-11T18:28:52.732Z,3.30
2023-02-11T18:31:20.293Z,2.83
2023-02-11T18:33:48.540Z,2.63
2023-02-11T18:36:16.847Z,3.10
2023-02-11T18:38:44.532Z,2.80
2023-02-11T18:41:12.926Z,2.60
2023-02-11T18:43:43.568Z,2.53
2023-02-11T18:46:12.389Z,2.70
2023-02-11T18:48:40.561Z,3.20
2023-02-11T18:51:15.978Z,2.43
2023-02-11T18:53:43.844Z,2.27
2023-02-11T18:56:12.357Z,2.73
2023-02-11T18:58:39.994Z,2.70
2023-02-11T19:01:12.057Z,2.40
2023-02-11T19:03:39.498Z,2.20
2023-02-11T19:06:08.289Z,3.17
2023-02-11T19:08:36.032Z,2.23
2023-02-11T19:11:05.422Z,2.70
2023-02-11T19:13:32.800Z,3.00
2023-02-11T19:16:02.298Z,2.23
2023-02-11T19:18:29.647Z,2.77
2023-02-11T19:20:57.111Z,2.20
2023-02-11T19:23:24.524Z,2.90
2023-02-11T19:25:52.178Z,3.23
2023-02-11T19:28:19.892Z,2.90
2023-02-11T19:30:47.449Z,2.87
2023-02-11T19:33:15.069Z,2.20
2023-02-11T19:35:42.752Z,2.67
2023-02-11T19:38:10.327Z,2.70
2023-02-11T19:40:38.193Z,2.77
2023-02-11T19:43:05.714Z,2.70
2023-02-11T19:45:33.261Z,3.10
2023-02-11T19:48:00.682Z,2.97
2023-02-11T19:50:28.844Z,2.80
2023-02-11T19:52:56.396Z,2.83
2023-02-11T19:55:23.885Z,2.63
2023-02-11T19:57:51.327Z,2.97
2023-02-11T20:00:19.049Z,2.83
2023-02-11T20:02:47.210Z,2.73
2023-02-11T20:05:14.659Z,3.13
2023-02-11T20:07:42.167Z,2.67
2023-02-11T20:10:10.149Z,3.00
2023-02-11T20:12:38.004Z,2.57
2023-02-11T20:15:05.771Z,2.83
2023-02-11T20:17:33.233Z,2.90
2023-02-11T20:20:00.721Z,2.60
2023-02-11T20:22:28.154Z,2.73
2023-02-11T20:24:55.590Z,2.53
2023-02-11T20:27:24.129Z,2.67
2023-02-11T20:29:54.342Z,2.73
2023-02-11T20:32:22.200Z,2.67
2023-02-11T20:34:49.624Z,2.07
2023-02-11T20:37:19.300Z,2.57
2023-02-11T20:39:46.705Z,2.73
2023-02-11T20:42:15.150Z,2.37
2023-02-11T20:44:42.474Z,2.70
2023-02-11T20:47:09.909Z,2.20
2023-02-11T20:49:37.242Z,2.47
2023-02-11T20:52:04.768Z,3.03
2023-02-11T20:54:32.125Z,2.47
2023-02-11T20:57:00.195Z,3.07
2023-02-11T20:59:27.844Z,2.83
2023-02-11T21:01:56.214Z,3.00
2023-02-11T21:04:25.391Z,2.37
2023-02-11T21:06:54.478Z,2.57
2023-02-11T21:09:25.936Z,2.80
2023-02-11T21:11:54.296Z,3.00
2023-02-11T21:14:22.548Z,2.93
2023-02-11T21:16:50.736Z,3.30
2023-02-11T21:19:18.388Z,3.33
2023-02-11T21:21:46.716Z,2.63
2023-02-11T21:24:14.276Z,2.67
2023-02-11T21:26:41.731Z,2.57
2023-02-11T21:29:09.884Z,3.00
2023-02-11T21:31:40.226Z,2.77
2023-02-11T21:34:07.851Z,3.10
2023-02-11T21:36:35.632Z,3.00
2023-02-11T21:39:04.023Z,3.17
2023-02-11T21:41:31.707Z,2.90
2023-02-11T21:43:59.293Z,2.60
2023-02-11T21:46:27.150Z,2.63
2023-02-11T21:48:56.263Z,3.33
2023-02-11T21:51:25.062Z,2.60
2023-02-11T21:53:56.094Z,2.93
2023-02-11T21:56:23.820Z,3.07
2023-02-11T21:58:53.112Z,2.73
2023-02-11T22:01:22.562Z,3.73
2023-02-11T22:03:49.978Z,2.67
2023-02-11T22:06:21.694Z,3.37
2023-02-11T22:08:49.912Z,2.90
2023-02-11T22:11:17.511Z,2.37
2023-02-11T22:13:45.117Z,3.43
2023-02-11T22:16:14.026Z,2.73
2023-02-11T22:18:41.928Z,3.23
2023-02-11T22:21:14.002Z,3.00
2023-02-11T22:23:41.559Z,3.10
2023-02-11T22:26:10.702Z,2.90
2023-02-11T22:28:40.545Z,3.33
2023-02-11T22:31:08.777Z,3.23
2023-02-11T22:33:36.391Z,4.23
2023-02-11T22:36:05.415Z,3.10
2023-02-11T22:38:33.141Z,3.20
2023-02-11T22:41:01.118Z,3.10
2023-02-11T22:43:28.926Z,2.90
2023-02-11T22:45:56.784Z,2.87
2023-02-11T22:48:24.352Z,2.27
2023-02-11T22:50:51.721Z,3.90
2023-02-11T22:53:19.224Z,4.33
2023-02-11T22:55:46.764Z,3.70
2023-02-11T22:58:14.228Z,2.57
2023-02-11T23:00:42.580Z,3.80
2023-02-11T23:03:11.207Z,2.93
2023-02-11T23:05:42.504Z,2.60
2023-02-11T23:08:11.167Z,3.73
2023-02-11T23:10:39.548Z,3.27
2023-02-11T23:13:07.716Z,3.53
2023-02-11T23:15:35.187Z,3.93
2023-02-11T23:18:02.553Z,3.43
2023-02-11T23:20:29.908Z,3.50
2023-02-11T23:22:57.370Z,3.43
2023-02-11T23:25:24.859Z,3.17
2023-02-11T23:27:52.295Z,3.93
2023-02-11T23:30:19.903Z,3.10
2023-02-11T23:32:47.203Z,3.30
2023-02-11T23:35:22.025Z,3.20
2023-02-11T23:37:50.713Z,2.73
2023-02-11T23:40:18.375Z,3.67
2023-02-11T23:42:45.936Z,3.80
2023-02-11T23:45:13.443Z,4.00
2023-02-11T23:47:41.702Z,3.00
2023-02-11T23:50:09.633Z,2.63
2023-02-11T23:52:37.052Z,3.40
2023-02-11T23:55:04.470Z,3.40
2023-02-11T23:57:35.298Z,3.67
